Terminal Aerodrome Forecast
Issued by NWS

Home | Current Version | Previous Version | Text Only | Print | Product List | Glossary On
Versions: 1 2 3 4 5 6 7 8 9 10 11 12 13 14
000
FTAK31 PANC 281757
TAFAEN
TAF
PAEN 281757Z 2818/2918 VRB04KT P6SM -SHRA FEW020 BKN060 OVC100
     FM282200 24008KT P6SM -SHRA SCT050 BKN100
     FM290000 22013G22KT P6SM VCSH SCT030 BKN050=

USA.gov is the U.S. government's official web portal to all federal, state and local government web resources and services.